Time;durP1;ratioP1;P1;durP2;ratioP2;P2;SDS_P1;SDS_P2;PMS_P1;PMS_P2;Temp;Humidity;BMP_temperature;BMP_pressure;BME280_temperature;BME280_humidity;BME280_pressure;Samples;Min_cycle;Max_cycle;Signal;HPM_P1;HPM_P2
2023/03/08 00:01:26;;;;;;;;;;;;;;;;;;5025508;28;42992;-77
2023/03/08 00:03:52;;;;;;;;;;;;;;;;;;5025652;28;43930;-77
2023/03/08 00:06:18;;;;;;;;;;;;;;;;;;5025500;28;42998;-77
2023/03/08 00:08:45;;;;;;;;;;;;;;;;;;5025608;28;43028;-77
2023/03/08 00:11:11;;;;;;;;;;;;;;;;;;5025053;28;43011;-77
2023/03/08 00:13:37;;;;;;;;;;;;;;;;;;5025001;28;42808;-77
2023/03/08 00:16:02;;;;;;;;;;;;;;;;;;5025495;28;43073;-79
2023/03/08 00:18:28;;;;;;;;;;;;;;;;;;5025520;28;42830;-77
2023/03/08 00:20:54;;;;;;;;;;;;;;;;;;5025733;28;42907;-78
2023/03/08 00:23:20;;;;;;;;;;;;;;;;;;5025508;28;42939;-78
2023/03/08 00:25:46;;;;;;;;;;;;;;;;;;5025756;28;42979;-77
2023/03/08 00:28:12;;;;;;;;;;;;;;;;;;5025578;28;43111;-77
2023/03/08 00:30:38;;;;;;;;;;;;;;;;;;5025731;28;43029;-77
2023/03/08 00:33:04;;;;;;;;;;;;;;;;;;5025263;28;42939;-78
2023/03/08 00:35:30;;;;;;;;;;;;;;;;;;5025466;28;43057;-77
2023/03/08 00:37:55;;;;;;;;;;;;;;;;;;5025337;28;42958;-77
2023/03/08 00:40:21;;;;;;;;;;;;;;;;;;5025569;28;42839;-77
2023/03/08 00:42:47;;;;;;;;;;;;;;;;;;5025742;28;42847;-78
2023/03/08 00:45:13;;;;;;;;;;;;;;;;;;5025732;28;42901;-79
2023/03/08 00:47:39;;;;;;;;;;;;;;;;;;5023391;28;43539;-77
2023/03/08 00:50:05;;;;;;;;;;;;;;;;;;5024903;28;42967;-77
2023/03/08 00:52:31;;;;;;;;;;;;;;;;;;5024997;28;43971;-77
2023/03/08 00:54:57;;;;;;;;;;;;;;;;;;5025280;28;42913;-77
2023/03/08 00:57:22;;;;;;;;;;;;;;;;;;5025308;28;42983;-78
2023/03/08 00:59:48;;;;;;;;;;;;;;;;;;5024584;28;43098;-78
2023/03/08 01:02:14;;;;;;;;;;;;;;;;;;5025110;28;43298;-77
2023/03/08 01:04:40;;;;;;;;;;;;;;;;;;5023538;28;43115;-77
2023/03/08 01:07:06;;;;;;;;;;;;;;;;;;5025802;28;43736;-77
2023/03/08 01:09:32;;;;;;;;;;;;;;;;;;5025117;28;43020;-77
2023/03/08 01:11:58;;;;;;;;;;;;;;;;;;5024718;28;42895;-77
2023/03/08 01:14:24;;;;;;;;;;;;;;;;;;5025149;28;43071;-77
2023/03/08 01:16:50;;;;;;;;;;;;;;;;;;5024934;28;42721;-77
2023/03/08 01:19:15;;;;;;;;;;;;;;;;;;5024979;28;42824;-77
2023/03/08 01:21:41;;;;;;;;;;;;;;;;;;5024516;28;42915;-77
2023/03/08 01:24:07;;;;;;;;;;;;;;;;;;5025347;28;42913;-77
2023/03/08 01:26:33;;;;;;;;;;;;;;;;;;5025080;28;43556;-77
2023/03/08 01:28:59;;;;;;;;;;;;;;;;;;5025128;28;42785;-77
2023/03/08 01:31:25;;;;;;;;;;;;;;;;;;5024732;28;42960;-77
2023/03/08 01:33:51;;;;;;;;;;;;;;;;;;5024924;28;42848;-77
2023/03/08 01:36:17;;;;;;;;;;;;;;;;;;5024425;28;42889;-77
2023/03/08 01:38:43;;;;;;;;;;;;;;;;;;5024732;28;42917;-77
2023/03/08 01:41:09;;;;;;;;;;;;;;;;;;5023038;28;43651;-77
2023/03/08 01:43:35;;;;;;;;;;;;;;;;;;5024931;28;43003;-76
2023/03/08 01:46:01;;;;;;;;;;;;;;;;;;5024202;28;43867;-78
2023/03/08 01:48:27;;;;;;;;;;;;;;;;;;5024882;28;43072;-77
2023/03/08 01:50:53;;;;;;;;;;;;;;;;;;5024519;28;43031;-77
2023/03/08 01:53:19;;;;;;;;;;;;;;;;;;5024421;28;42911;-77
2023/03/08 01:55:44;;;;;;;;;;;;;;;;;;5023995;28;44426;-77
2023/03/08 01:58:10;;;;;;;;;;;;;;;;;;5025407;28;42868;-77
2023/03/08 02:00:36;;;;;;;;;;;;;;;;;;5027931;28;43943;-77
2023/03/08 02:03:02;;;;;;;;;;;;;;;;;;5028165;28;43061;-78
2023/03/08 02:05:28;;;;;;;;;;;;;;;;;;5027688;28;42915;-77
2023/03/08 02:07:54;;;;;;;;;;;;;;;;;;5027567;28;42721;-77
2023/03/08 02:10:20;;;;;;;;;;;;;;;;;;5028063;28;42840;-77
2023/03/08 02:12:46;;;;;;;;;;;;;;;;;;5027902;28;42808;-77
2023/03/08 02:15:11;;;;;;;;;;;;;;;;;;5027499;28;42982;-77
2023/03/08 02:17:37;;;;;;;;;;;;;;;;;;5027527;28;42971;-77
2023/03/08 02:20:04;;;;;;;;;;;;;;;;;;5027010;28;42932;-77
2023/03/08 02:22:30;;;;;;;;;;;;;;;;;;5027171;28;42923;-77
2023/03/08 02:24:56;;;;;;;;;;;;;;;;;;5027517;28;43532;-77
2023/03/08 02:27:21;;;;;;;;;;;;;;;;;;5027976;28;43037;-77
2023/03/08 02:29:47;;;;;;;;;;;;;;;;;;5027292;28;43690;-77
2023/03/08 02:32:14;;;;;;;;;;;;;;;;;;5027592;28;42993;-77
2023/03/08 02:34:40;;;;;;;;;;;;;;;;;;5019523;28;42996;-77
2023/03/08 02:37:06;;;;;;;;;;;;;;;;;;5006668;28;42837;-76
2023/03/08 02:39:32;;;;;;;;;;;;;;;;;;5006913;28;43004;-76
2023/03/08 02:41:58;;;;;;;;;;;;;;;;;;5007094;28;42766;-76
2023/03/08 02:44:23;;;;;;;;;;;;;;;;;;5022126;28;42961;-78
2023/03/08 02:46:49;;;;;;;;;;;;;;;;;;5006200;28;42952;-77
2023/03/08 02:49:15;;;;;;;;;;;;;;;;;;5006725;28;42807;-76
2023/03/08 02:51:41;;;;;;;;;;;;;;;;;;5007043;28;42896;-77
2023/03/08 02:54:07;;;;;;;;;;;;;;;;;;5006922;28;43042;-77
2023/03/08 02:56:33;;;;;;;;;;;;;;;;;;5006465;28;42971;-76
2023/03/08 02:58:59;;;;;;;;;;;;;;;;;;5006836;28;42957;-77
2023/03/08 03:01:25;;;;;;;;;;;;;;;;;;5021122;28;42912;-77
2023/03/08 03:03:50;;;;;;;;;;;;;;;;;;5006500;28;42749;-77
2023/03/08 03:06:16;;;;;;;;;;;;;;;;;;5006116;28;42995;-77
2023/03/08 03:08:42;;;;;;;;;;;;;;;;;;5005799;28;42905;-77
2023/03/08 03:11:08;;;;;;;;;;;;;;;;;;5005793;28;43176;-77
2023/03/08 03:13:34;;;;;;;;;;;;;;;;;;5005546;28;43612;-77
2023/03/08 03:16:00;;;;;;;;;;;;;;;;;;5006531;28;42994;-79
2023/03/08 03:18:26;;;;;;;;;;;;;;;;;;5005479;28;43769;-77
2023/03/08 03:20:52;;;;;;;;;;;;;;;;;;5005589;28;43481;-78
2023/03/08 03:23:17;;;;;;;;;;;;;;;;;;5006095;28;43628;-77
2023/03/08 03:25:43;;;;;;;;;;;;;;;;;;5006700;28;42988;-77
2023/03/08 03:28:09;;;;;;;;;;;;;;;;;;5006417;28;43387;-77
2023/03/08 03:30:35;;;;;;;;;;;;;;;;;;5006007;28;42766;-78
2023/03/08 03:33:01;;;;;;;;;;;;;;;;;;5005718;28;43008;-77
2023/03/08 03:35:27;;;;;;;;;;;;;;;;;;5006404;28;42938;-77
2023/03/08 03:37:53;;;;;;;;;;;;;;;;;;5005866;28;42880;-77
2023/03/08 03:40:19;;;;;;;;;;;;;;;;;;5006402;28;43010;-77
2023/03/08 03:42:45;;;;;;;;;;;;;;;;;;5006111;28;42871;-77
2023/03/08 03:45:10;;;;;;;;;;;;;;;;;;5006577;28;42861;-77
2023/03/08 03:47:36;;;;;;;;;;;;;;;;;;5005268;28;42888;-77
2023/03/08 03:50:02;;;;;;;;;;;;;;;;;;5005628;28;42819;-77
2023/03/08 03:52:28;;;;;;;;;;;;;;;;;;5005977;28;43743;-77
2023/03/08 03:54:54;;;;;;;;;;;;;;;;;;5006004;28;42925;-77
2023/03/08 03:57:20;;;;;;;;;;;;;;;;;;5005736;28;42913;-77
2023/03/08 03:59:46;;;;;;;;;;;;;;;;;;5005092;28;42908;-77
2023/03/08 04:02:12;;;;;;;;;;;;;;;;;;5005003;28;42974;-77
2023/03/08 04:04:38;;;;;;;;;;;;;;;;;;5005927;28;42934;-78
2023/03/08 04:07:03;;;;;;;;;;;;;;;;;;5004878;28;43562;-77
2023/03/08 04:09:29;;;;;;;;;;;;;;;;;;5005164;28;43055;-77
2023/03/08 04:11:55;;;;;;;;;;;;;;;;;;5004819;28;43090;-77
2023/03/08 04:14:21;;;;;;;;;;;;;;;;;;5005380;28;43057;-77
2023/03/08 04:16:47;;;;;;;;;;;;;;;;;;5004990;28;43070;-77
2023/03/08 04:19:13;;;;;;;;;;;;;;;;;;5005159;28;43101;-77
2023/03/08 04:21:39;;;;;;;;;;;;;;;;;;5004803;28;43007;-77
2023/03/08 04:24:05;;;;;;;;;;;;;;;;;;5005564;28;42875;-77
2023/03/08 04:26:31;;;;;;;;;;;;;;;;;;5006014;28;42836;-77
2023/03/08 04:28:57;;;;;;;;;;;;;;;;;;5004879;28;43076;-77
2023/03/08 04:31:22;;;;;;;;;;;;;;;;;;5004236;28;42908;-78
2023/03/08 04:33:48;;;;;;;;;;;;;;;;;;5019666;28;43072;-77
2023/03/08 04:36:15;;;;;;;;;;;;;;;;;;5005635;28;43315;-77
2023/03/08 04:38:41;;;;;;;;;;;;;;;;;;5019678;28;43050;-77
2023/03/08 04:41:12;;;;;;;;;;;;;;;;;;5005322;28;43432;-76
2023/03/08 04:43:38;;;;;;;;;;;;;;;;;;5005494;28;42872;-77
2023/03/08 04:46:04;;;;;;;;;;;;;;;;;;5004389;28;42922;-77
2023/03/08 04:48:30;;;;;;;;;;;;;;;;;;5004997;28;42932;-78
2023/03/08 04:50:56;;;;;;;;;;;;;;;;;;5019339;28;44890;-77
2023/03/08 04:53:22;;;;;;;;;;;;;;;;;;5004447;28;43126;-78
2023/03/08 04:55:48;;;;;;;;;;;;;;;;;;5003790;28;43788;-77
2023/03/08 04:58:14;;;;;;;;;;;;;;;;;;5004222;28;42967;-77
2023/03/08 05:00:40;;;;;;;;;;;;;;;;;;5004763;28;43718;-77
2023/03/08 05:03:06;;;;;;;;;;;;;;;;;;5004878;28;42916;-77
2023/03/08 05:05:31;;;;;;;;;;;;;;;;;;5004241;28;42833;-77
2023/03/08 05:08:04;;;;;;;;;;;;;;;;;;5018836;28;42888;-77
2023/03/08 05:10:30;;;;;;;;;;;;;;;;;;5004272;28;43013;-77
2023/03/08 05:12:56;;;;;;;;;;;;;;;;;;5004012;28;42978;-77
2023/03/08 05:15:22;;;;;;;;;;;;;;;;;;5004416;28;43363;-77
2023/03/08 05:17:48;;;;;;;;;;;;;;;;;;5004009;28;42892;-77
2023/03/08 05:20:14;;;;;;;;;;;;;;;;;;5004983;28;43533;-76
2023/03/08 05:22:40;;;;;;;;;;;;;;;;;;5004623;28;42836;-78
2023/03/08 05:25:05;;;;;;;;;;;;;;;;;;5004510;28;43062;-78
2023/03/08 05:27:31;;;;;;;;;;;;;;;;;;5004300;28;43046;-76
2023/03/08 05:29:57;;;;;;;;;;;;;;;;;;5004302;28;43248;-78
2023/03/08 05:32:23;;;;;;;;;;;;;;;;;;5004611;28;43173;-77
2023/03/08 05:34:49;;;;;;;;;;;;;;;;;;5007888;28;43567;-78
2023/03/08 05:37:15;;;;;;;;;;;;;;;;;;5007881;28;42957;-78
2023/03/08 05:39:41;;;;;;;;;;;;;;;;;;5008106;28;42999;-78
2023/03/08 05:42:07;;;;;;;;;;;;;;;;;;5007474;28;42777;-78
2023/03/08 05:44:34;;;;;;;;;;;;;;;;;;5007682;28;42841;-77
2023/03/08 05:47:00;;;;;;;;;;;;;;;;;;5023174;28;43047;-78
2023/03/08 05:49:26;;;;;;;;;;;;;;;;;;5007843;28;43888;-77
2023/03/08 05:51:53;;;;;;;;;;;;;;;;;;5007266;28;43158;-77
2023/03/08 05:54:19;;;;;;;;;;;;;;;;;;5007265;28;43276;-77
2023/03/08 05:56:45;;;;;;;;;;;;;;;;;;5006423;28;43171;-77
2023/03/08 05:59:11;;;;;;;;;;;;;;;;;;5007009;28;42892;-77
2023/03/08 06:01:37;;;;;;;;;;;;;;;;;;5006601;28;43080;-77
2023/03/08 06:04:02;;;;;;;;;;;;;;;;;;5007315;28;42908;-78
2023/03/08 06:06:28;;;;;;;;;;;;;;;;;;5007084;28;42960;-78
2023/03/08 06:08:57;;;;;;;;;;;;;;;;;;5006197;28;42888;-77
2023/03/08 06:11:23;;;;;;;;;;;;;;;;;;5006793;28;42964;-78
2023/03/08 06:13:49;;;;;;;;;;;;;;;;;;5007144;28;43792;-77
2023/03/08 06:16:15;;;;;;;;;;;;;;;;;;5021371;28;43084;-77
2023/03/08 06:18:41;;;;;;;;;;;;;;;;;;5007665;28;42932;-77
2023/03/08 06:21:07;;;;;;;;;;;;;;;;;;5007272;28;42842;-77
2023/03/08 06:23:33;;;;;;;;;;;;;;;;;;5022294;28;44353;-78
2023/03/08 06:25:59;;;;;;;;;;;;;;;;;;5007097;28;42956;-83
2023/03/08 06:28:24;;;;;;;;;;;;;;;;;;5006982;28;42935;-78
2023/03/08 06:30:50;;;;;;;;;;;;;;;;;;5006322;28;43055;-77
2023/03/08 06:33:16;;;;;;;;;;;;;;;;;;5022517;28;42973;-77
2023/03/08 06:35:42;;;;;;;;;;;;;;;;;;5007576;28;42952;-77
2023/03/08 06:38:08;;;;;;;;;;;;;;;;;;5007125;28;42959;-77
2023/03/08 06:40:34;;;;;;;;;;;;;;;;;;5006677;28;42919;-77
2023/03/08 06:43:00;;;;;;;;;;;;;;;;;;5006854;28;43803;-77
2023/03/08 06:45:26;;;;;;;;;;;;;;;;;;5005525;28;42748;-77
2023/03/08 06:47:52;;;;;;;;;;;;;;;;;;5007165;28;43631;-77
2023/03/08 06:50:18;;;;;;;;;;;;;;;;;;5006541;28;42877;-79
2023/03/08 06:52:44;;;;;;;;;;;;;;;;;;5007384;28;42914;-77
2023/03/08 06:55:10;;;;;;;;;;;;;;;;;;5007219;28;42948;-76
2023/03/08 06:57:35;;;;;;;;;;;;;;;;;;5020873;28;44644;-77
2023/03/08 07:00:03;;;;;;;;;;;;;;;;;;5006771;28;42847;-77
2023/03/08 07:02:28;;;;;;;;;;;;;;;;;;5006536;28;43554;-77
2023/03/08 07:04:54;;;;;;;;;;;;;;;;;;5006990;28;43001;-78
2023/03/08 07:07:20;;;;;;;;;;;;;;;;;;5006677;28;43740;-77
2023/03/08 07:09:46;;;;;;;;;;;;;;;;;;5006718;28;42898;-81
2023/03/08 07:12:12;;;;;;;;;;;;;;;;;;5019792;28;44939;-77
2023/03/08 07:14:38;;;;;;;;;;;;;;;;;;5005970;28;43010;-77
2023/03/08 07:17:04;;;;;;;;;;;;;;;;;;5006459;28;42951;-77
2023/03/08 07:19:30;;;;;;;;;;;;;;;;;;5006157;28;42909;-77
2023/03/08 07:21:55;;;;;;;;;;;;;;;;;;5006543;28;43953;-78
2023/03/08 07:24:21;;;;;;;;;;;;;;;;;;5006765;28;43026;-78
2023/03/08 07:26:47;;;;;;;;;;;;;;;;;;5006372;28;43647;-77
2023/03/08 07:29:13;;;;;;;;;;;;;;;;;;5005627;28;42950;-77
2023/03/08 07:31:39;;;;;;;;;;;;;;;;;;5006556;28;43397;-77
2023/03/08 07:34:05;;;;;;;;;;;;;;;;;;5005834;28;42694;-77
2023/03/08 07:36:31;;;;;;;;;;;;;;;;;;5006271;28;43689;-77
2023/03/08 07:38:57;;;;;;;;;;;;;;;;;;5006715;28;42826;-77
2023/03/08 07:41:23;;;;;;;;;;;;;;;;;;5005414;28;42895;-77
2023/03/08 07:43:48;;;;;;;;;;;;;;;;;;5006186;28;42992;-77
2023/03/08 07:46:14;;;;;;;;;;;;;;;;;;5005733;28;42861;-77
2023/03/08 07:48:40;;;;;;;;;;;;;;;;;;5005037;28;42990;-77
2023/03/08 07:51:08;;;;;;;;;;;;;;;;;;5006125;28;42848;-77
2023/03/08 07:53:34;;;;;;;;;;;;;;;;;;5005992;28;42983;-77
2023/03/08 07:56:00;;;;;;;;;;;;;;;;;;5004990;28;43829;-78
2023/03/08 07:58:25;;;;;;;;;;;;;;;;;;5005179;28;42924;-77
2023/03/08 08:00:51;;;;;;;;;;;;;;;;;;5006099;28;43100;-76
2023/03/08 08:03:17;;;;;;;;;;;;;;;;;;5006054;28;42853;-77
2023/03/08 08:05:43;;;;;;;;;;;;;;;;;;5005856;28;44294;-77
2023/03/08 08:08:12;;;;;;;;;;;;;;;;;;5005316;28;42959;-77
2023/03/08 08:10:38;;;;;;;;;;;;;;;;;;5005620;28;43119;-77
2023/03/08 08:13:04;;;;;;;;;;;;;;;;;;5004841;28;42919;-77
2023/03/08 08:15:30;;;;;;;;;;;;;;;;;;5005488;28;42986;-79
2023/03/08 08:17:56;;;;;;;;;;;;;;;;;;5005255;28;42929;-77
2023/03/08 08:20:23;;;;;;;;;;;;;;;;;;5005170;28;43720;-77
2023/03/08 08:22:52;;;;;;;;;;;;;;;;;;5004973;28;42999;-77
2023/03/08 08:25:18;;;;;;;;;;;;;;;;;;5004563;28;43135;-77
2023/03/08 08:27:43;;;;;;;;;;;;;;;;;;5005569;28;42838;-77
2023/03/08 08:30:10;;;;;;;;;;;;;;;;;;5005228;28;43685;-77
2023/03/08 08:32:35;;;;;;;;;;;;;;;;;;5004724;28;42849;-77
2023/03/08 08:35:01;;;;;;;;;;;;;;;;;;5005054;28;43505;-76
2023/03/08 08:37:27;;;;;;;;;;;;;;;;;;5004895;28;42932;-76
2023/03/08 08:39:53;;;;;;;;;;;;;;;;;;5004784;28;43655;-77
2023/03/08 08:42:19;;;;;;;;;;;;;;;;;;5004014;28;42979;-77
2023/03/08 08:44:45;;;;;;;;;;;;;;;;;;5004276;28;43008;-77
2023/03/08 08:47:11;;;;;;;;;;;;;;;;;;5003777;28;43019;-77
2023/03/08 08:49:38;;;;;;;;;;;;;;;;;;5004940;28;43632;-77
2023/03/08 08:52:04;;;;;;;;;;;;;;;;;;5020958;28;43130;-77
2023/03/08 08:54:31;;;;;;;;;;;;;;;;;;5005174;28;43457;-76
2023/03/08 08:56:57;;;;;;;;;;;;;;;;;;5004567;28;42926;-77
2023/03/08 08:59:23;;;;;;;;;;;;;;;;;;5004555;28;42912;-77
2023/03/08 09:01:49;;;;;;;;;;;;;;;;;;5004695;28;42860;-77
2023/03/08 09:04:19;;;;;;;;;;;;;;;;;;5004366;28;43524;-78
2023/03/08 09:06:46;;;;;;;;;;;;;;;;;;5004731;28;42797;-77
2023/03/08 09:09:12;;;;;;;;;;;;;;;;;;5003679;28;42743;-77
2023/03/08 09:11:37;;;;;;;;;;;;;;;;;;5004667;28;42983;-77
2023/03/08 09:14:03;;;;;;;;;;;;;;;;;;5004417;28;43081;-76
2023/03/08 09:16:29;;;;;;;;;;;;;;;;;;5004288;28;43072;-77
2023/03/08 09:18:55;;;;;;;;;;;;;;;;;;5004942;28;43107;-77
2023/03/08 09:21:21;;;;;;;;;;;;;;;;;;5004780;28;43027;-77
2023/03/08 09:23:47;;;;;;;;;;;;;;;;;;5004714;28;43796;-77
2023/03/08 09:26:13;;;;;;;;;;;;;;;;;;5004178;28;43015;-77
2023/03/08 09:28:39;;;;;;;;;;;;;;;;;;5003604;28;43620;-77
2023/03/08 09:31:06;;;;;;;;;;;;;;;;;;5004699;28;42735;-77
2023/03/08 09:33:32;;;;;;;;;;;;;;;;;;5004563;28;43440;-76
2023/03/08 09:35:58;;;;;;;;;;;;;;;;;;5004107;28;42777;-78
2023/03/08 09:38:24;;;;;;;;;;;;;;;;;;5004464;28;42836;-77
2023/03/08 09:40:50;;;;;;;;;;;;;;;;;;5004437;28;43450;-77
2023/03/08 09:43:16;;;;;;;;;;;;;;;;;;5003214;28;43567;-77
2023/03/08 09:45:42;;;;;;;;;;;;;;;;;;5003877;28;42876;-77
2023/03/08 09:48:09;;;;;;;;;;;;;;;;;;5019431;28;43030;-77
2023/03/08 09:50:35;;;;;;;;;;;;;;;;;;5004343;28;42988;-77
2023/03/08 09:53:01;;;;;;;;;;;;;;;;;;5004188;28;43522;-76
2023/03/08 09:55:29;;;;;;;;;;;;;;;;;;5004295;28;43002;-77
2023/03/08 09:57:55;;;;;;;;;;;;;;;;;;5018713;28;44320;-77
2023/03/08 10:00:21;;;;;;;;;;;;;;;;;;5004498;28;42940;-77
2023/03/08 10:02:47;;;;;;;;;;;;;;;;;;5004468;28;42785;-77
2023/03/08 10:05:13;;;;;;;;;;;;;;;;;;5003660;28;42970;-77
2023/03/08 10:07:39;;;;;;;;;;;;;;;;;;5018590;28;44015;-77
2023/03/08 10:10:05;;;;;;;;;;;;;;;;;;5003066;28;42955;-78
2023/03/08 10:12:31;;;;;;;;;;;;;;;;;;5003276;28;43069;-78
2023/03/08 10:14:57;;;;;;;;;;;;;;;;;;5003264;28;43119;-78
2023/03/08 10:17:22;;;;;;;;;;;;;;;;;;5003010;28;42995;-78
2023/03/08 10:19:48;;;;;;;;;;;;;;;;;;5005384;28;42952;-77
2023/03/08 10:22:14;;;;;;;;;;;;;;;;;;5007444;28;42845;-77
2023/03/08 10:24:40;;;;;;;;;;;;;;;;;;5006681;28;43147;-78
2023/03/08 10:27:06;;;;;;;;;;;;;;;;;;5007011;28;42894;-78
2023/03/08 10:29:32;;;;;;;;;;;;;;;;;;5022210;28;43091;-76
2023/03/08 10:31:58;;;;;;;;;;;;;;;;;;5007588;28;42862;-78
2023/03/08 10:34:24;;;;;;;;;;;;;;;;;;5006752;28;42945;-77
2023/03/08 10:36:50;;;;;;;;;;;;;;;;;;5007072;28;42901;-77
2023/03/08 10:39:15;;;;;;;;;;;;;;;;;;5022237;28;43125;-77
2023/03/08 10:41:41;;;;;;;;;;;;;;;;;;5006504;28;43006;-77
2023/03/08 10:44:07;;;;;;;;;;;;;;;;;;5007519;28;42857;-78
2023/03/08 10:46:33;;;;;;;;;;;;;;;;;;5007247;28;42970;-77
2023/03/08 10:48:59;;;;;;;;;;;;;;;;;;5006670;28;43038;-78
2023/03/08 10:51:25;;;;;;;;;;;;;;;;;;5006529;28;42912;-78
2023/03/08 10:53:51;;;;;;;;;;;;;;;;;;5007302;28;43098;-77
2023/03/08 10:56:17;;;;;;;;;;;;;;;;;;5006421;28;42932;-78
2023/03/08 10:58:42;;;;;;;;;;;;;;;;;;5005590;28;43282;-77
2023/03/08 11:01:08;;;;;;;;;;;;;;;;;;5006592;28;43586;-78
2023/03/08 11:03:34;;;;;;;;;;;;;;;;;;5007143;28;42912;-78
2023/03/08 11:06:00;;;;;;;;;;;;;;;;;;5006733;28;42865;-77
2023/03/08 11:08:27;;;;;;;;;;;;;;;;;;5007023;28;42844;-78
2023/03/08 11:10:52;;;;;;;;;;;;;;;;;;5020999;28;44413;-77
2023/03/08 11:13:18;;;;;;;;;;;;;;;;;;5006021;28;43111;-77
2023/03/08 11:15:44;;;;;;;;;;;;;;;;;;5006485;28;42991;-78
2023/03/08 11:18:10;;;;;;;;;;;;;;;;;;5021430;28;43276;-77
2023/03/08 11:20:36;;;;;;;;;;;;;;;;;;5006543;28;42862;-78
2023/03/08 11:23:02;;;;;;;;;;;;;;;;;;5005985;28;42947;-78
2023/03/08 11:25:28;;;;;;;;;;;;;;;;;;5006501;28;42929;-77
2023/03/08 11:27:54;;;;;;;;;;;;;;;;;;5005928;28;43184;-77
2023/03/08 11:30:20;;;;;;;;;;;;;;;;;;5005665;28;43402;-77
2023/03/08 11:32:46;;;;;;;;;;;;;;;;;;5006424;28;42815;-77
2023/03/08 11:35:12;;;;;;;;;;;;;;;;;;5006288;28;42946;-77
2023/03/08 11:37:38;;;;;;;;;;;;;;;;;;5005908;28;42952;-77
2023/03/08 11:40:05;;;;;;;;;;;;;;;;;;5006281;28;43560;-78
2023/03/08 11:42:32;;;;;;;;;;;;;;;;;;5005244;28;43235;-78
2023/03/08 11:44:58;;;;;;;;;;;;;;;;;;5006348;28;43981;-78
2023/03/08 11:47:24;;;;;;;;;;;;;;;;;;5005620;28;43166;-77
2023/03/08 11:49:50;;;;;;;;;;;;;;;;;;5005780;28;42904;-78
2023/03/08 11:52:16;;;;;;;;;;;;;;;;;;5005622;28;42852;-77
2023/03/08 11:54:42;;;;;;;;;;;;;;;;;;5006025;28;43700;-78
2023/03/08 11:57:08;;;;;;;;;;;;;;;;;;5005545;28;42774;-79
2023/03/08 11:59:34;;;;;;;;;;;;;;;;;;5005797;28;43969;-79
2023/03/08 12:02:01;;;;;;;;;;;;;;;;;;5005812;28;42837;-78
2023/03/08 12:04:27;;;;;;;;;;;;;;;;;;5005490;28;43406;-78
2023/03/08 12:06:53;;;;;;;;;;;;;;;;;;5005226;28;42951;-78
2023/03/08 12:09:21;;;;;;;;;;;;;;;;;;5005150;28;43378;-79
2023/03/08 12:11:47;;;;;;;;;;;;;;;;;;5005243;28;42985;-78
2023/03/08 12:14:15;;;;;;;;;;;;;;;;;;5005576;28;42916;-77
2023/03/08 12:16:41;;;;;;;;;;;;;;;;;;5005014;28;42885;-77
2023/03/08 12:19:07;;;;;;;;;;;;;;;;;;5005693;28;42956;-77
2023/03/08 12:21:33;;;;;;;;;;;;;;;;;;5005762;28;42943;-77
2023/03/08 12:23:59;;;;;;;;;;;;;;;;;;5005062;28;43019;-79
2023/03/08 12:26:25;;;;;;;;;;;;;;;;;;5020194;28;42942;-79
2023/03/08 12:28:50;;;;;;;;;;;;;;;;;;5005452;28;42897;-81
2023/03/08 12:31:18;;;;;;;;;;;;;;;;;;5004153;28;60792;-78
2023/03/08 12:33:44;;;;;;;;;;;;;;;;;;5005407;28;43567;-78
2023/03/08 12:36:10;;;;;;;;;;;;;;;;;;5005080;28;43002;-78
2023/03/08 12:38:36;;;;;;;;;;;;;;;;;;5005147;28;42872;-77
2023/03/08 12:41:02;;;;;;;;;;;;;;;;;;5004807;28;42952;-78
2023/03/08 12:43:28;;;;;;;;;;;;;;;;;;5004270;28;43976;-78
2023/03/08 12:45:54;;;;;;;;;;;;;;;;;;5005296;28;42929;-79
2023/03/08 12:48:20;;;;;;;;;;;;;;;;;;5004564;28;43765;-78
2023/03/08 12:50:46;;;;;;;;;;;;;;;;;;5005274;28;42925;-77
2023/03/08 12:53:11;;;;;;;;;;;;;;;;;;5019630;28;43490;-78
2023/03/08 12:55:37;;;;;;;;;;;;;;;;;;5004933;28;42781;-78
2023/03/08 12:58:03;;;;;;;;;;;;;;;;;;5004064;28;42745;-80
2023/03/08 13:00:29;;;;;;;;;;;;;;;;;;5005015;28;43007;-79
2023/03/08 13:02:55;;;;;;;;;;;;;;;;;;5004708;28;43554;-82
2023/03/08 13:05:21;;;;;;;;;;;;;;;;;;5005069;28;42877;-79
2023/03/08 13:07:47;;;;;;;;;;;;;;;;;;5005040;28;43538;-79
2023/03/08 13:10:13;;;;;;;;;;;;;;;;;;5004322;28;42960;-77
2023/03/08 13:12:39;;;;;;;;;;;;;;;;;;5005087;28;43708;-78
2023/03/08 13:15:04;;;;;;;;;;;;;;;;;;5004253;28;42878;-80
2023/03/08 13:17:31;;;;;;;;;;;;;;;;;;5019882;28;44713;-79
2023/03/08 13:19:57;;;;;;;;;;;;;;;;;;5005079;28;42928;-79
2023/03/08 13:22:22;;;;;;;;;;;;;;;;;;5003947;28;43752;-79
2023/03/08 13:24:48;;;;;;;;;;;;;;;;;;5004544;28;42821;-78
2023/03/08 13:27:14;;;;;;;;;;;;;;;;;;5003367;28;42880;-78
2023/03/08 13:29:40;;;;;;;;;;;;;;;;;;5019246;28;43111;-77
2023/03/08 13:32:06;;;;;;;;;;;;;;;;;;5019946;28;44960;-79
2023/03/08 13:34:32;;;;;;;;;;;;;;;;;;5004171;28;42970;-82
2023/03/08 13:36:58;;;;;;;;;;;;;;;;;;5004679;28;43620;-79
2023/03/08 13:39:24;;;;;;;;;;;;;;;;;;5004454;28;42915;-79
2023/03/08 13:41:50;;;;;;;;;;;;;;;;;;5004083;28;43279;-79
2023/03/08 13:44:16;;;;;;;;;;;;;;;;;;5003775;28;43295;-78
2023/03/08 13:46:42;;;;;;;;;;;;;;;;;;5004566;28;42896;-78
2023/03/08 13:49:07;;;;;;;;;;;;;;;;;;5004168;28;42915;-78
2023/03/08 13:51:33;;;;;;;;;;;;;;;;;;5004461;28;42877;-79
2023/03/08 13:53:59;;;;;;;;;;;;;;;;;;5004836;28;42909;-78
2023/03/08 13:56:25;;;;;;;;;;;;;;;;;;5006586;28;43146;-78
2023/03/08 13:58:53;;;;;;;;;;;;;;;;;;5007546;28;42967;-78
2023/03/08 14:01:21;;;;;;;;;;;;;;;;;;5007138;28;43025;-79
2023/03/08 14:03:46;;;;;;;;;;;;;;;;;;5021484;28;42945;-79
2023/03/08 14:06:12;;;;;;;;;;;;;;;;;;5006408;28;43530;-79
2023/03/08 14:08:38;;;;;;;;;;;;;;;;;;5021918;28;43078;-78
2023/03/08 14:11:04;;;;;;;;;;;;;;;;;;5006496;28;43571;-78
2023/03/08 14:13:30;;;;;;;;;;;;;;;;;;5022613;28;43136;-80
2023/03/08 14:15:56;;;;;;;;;;;;;;;;;;5006792;28;43613;-80
2023/03/08 14:18:22;;;;;;;;;;;;;;;;;;5006866;28;42889;-79
2023/03/08 14:20:48;;;;;;;;;;;;;;;;;;5006299;28;43767;-77
2023/03/08 14:23:14;;;;;;;;;;;;;;;;;;5007916;28;42941;-78
2023/03/08 14:25:40;;;;;;;;;;;;;;;;;;5006298;28;43486;-79
2023/03/08 14:28:06;;;;;;;;;;;;;;;;;;5008129;28;42900;-78
2023/03/08 14:30:31;;;;;;;;;;;;;;;;;;5007023;28;43646;-79
2023/03/08 14:32:57;;;;;;;;;;;;;;;;;;5007744;28;42826;-83
2023/03/08 14:35:23;;;;;;;;;;;;;;;;;;5006791;28;43070;-78
2023/03/08 14:37:54;;;;;;;;;;;;;;;;;;5022316;28;42970;-78
2023/03/08 14:40:20;;;;;;;;;;;;;;;;;;5020892;28;44577;-77
2023/03/08 14:42:46;;;;;;;;;;;;;;;;;;5021343;28;43214;-82
2023/03/08 14:45:12;;;;;;;;;;;;;;;;;;5021638;28;45301;-79
2023/03/08 14:47:38;;;;;;;;;;;;;;;;;;5020929;28;42983;-82
2023/03/08 14:50:04;;;;;;;;;;;;;;;;;;5021724;28;44230;-78
2023/03/08 14:52:30;;;;;;;;;;;;;;;;;;5021540;28;42891;-77
2023/03/08 14:54:56;;;;;;;;;;;;;;;;;;5006048;28;43922;-83
2023/03/08 14:57:21;;;;;;;;;;;;;;;;;;5006326;28;43048;-84
2023/03/08 14:59:47;;;;;;;;;;;;;;;;;;5006890;28;42855;-79
2023/03/08 15:02:13;;;;;;;;;;;;;;;;;;5004608;28;42980;-78
2023/03/08 15:04:39;;;;;;;;;;;;;;;;;;5004231;28;43195;-81
2023/03/08 15:07:05;;;;;;;;;;;;;;;;;;5006296;28;42830;-79
2023/03/08 15:09:31;;;;;;;;;;;;;;;;;;5005771;28;43993;-85
2023/03/08 15:11:58;;;;;;;;;;;;;;;;;;5006313;28;42948;-80
2023/03/08 15:14:25;;;;;;;;;;;;;;;;;;5006260;28;42948;-77
2023/03/08 15:16:53;;;;;;;;;;;;;;;;;;5005865;28;42904;-83
2023/03/08 15:19:21;;;;;;;;;;;;;;;;;;5006212;28;43586;-78
2023/03/08 15:21:47;;;;;;;;;;;;;;;;;;5021402;28;43065;-80
2023/03/08 15:24:13;;;;;;;;;;;;;;;;;;5021261;28;44076;-77
2023/03/08 15:26:38;;;;;;;;;;;;;;;;;;5006758;28;42888;-78
2023/03/08 15:29:05;;;;;;;;;;;;;;;;;;5004805;28;43040;-80
2023/03/08 15:31:30;;;;;;;;;;;;;;;;;;5006774;28;42914;-83
2023/03/08 15:33:56;;;;;;;;;;;;;;;;;;5006724;28;43021;-80
2023/03/08 15:36:22;;;;;;;;;;;;;;;;;;5006264;28;42829;-85
2023/03/08 15:38:48;;;;;;;;;;;;;;;;;;5020090;28;45580;-78
2023/03/08 15:41:14;;;;;;;;;;;;;;;;;;5006381;28;42902;-77
2023/03/08 15:43:40;;;;;;;;;;;;;;;;;;5005887;28;43714;-82
2023/03/08 15:46:06;;;;;;;;;;;;;;;;;;5005778;28;42921;-78
2023/03/08 15:48:32;;;;;;;;;;;;;;;;;;5004600;28;42864;-79
2023/03/08 15:50:58;;;;;;;;;;;;;;;;;;5005814;28;42861;-78
2023/03/08 15:53:24;;;;;;;;;;;;;;;;;;5005598;28;42988;-78
2023/03/08 15:55:50;;;;;;;;;;;;;;;;;;5020942;28;42903;-82
2023/03/08 15:58:16;;;;;;;;;;;;;;;;;;5005951;28;42864;-77
2023/03/08 16:00:42;;;;;;;;;;;;;;;;;;5005581;28;43068;-82
2023/03/08 16:03:07;;;;;;;;;;;;;;;;;;5005351;28;42939;-79
2023/03/08 16:05:33;;;;;;;;;;;;;;;;;;5006013;28;43054;-79
2023/03/08 16:07:59;;;;;;;;;;;;;;;;;;5005324;28;42887;-82
2023/03/08 16:10:25;;;;;;;;;;;;;;;;;;5005207;28;43071;-79
2023/03/08 16:12:51;;;;;;;;;;;;;;;;;;5005528;28;44210;-78
2023/03/08 16:15:17;;;;;;;;;;;;;;;;;;5005944;28;42770;-78
2023/03/08 16:17:43;;;;;;;;;;;;;;;;;;5004302;28;42939;-77
2023/03/08 16:20:09;;;;;;;;;;;;;;;;;;5005342;28;43051;-80
2023/03/08 16:22:35;;;;;;;;;;;;;;;;;;5005229;28;43867;-78
2023/03/08 16:25:01;;;;;;;;;;;;;;;;;;5005058;28;42891;-83
2023/03/08 16:27:27;;;;;;;;;;;;;;;;;;5004921;28;43494;-82
2023/03/08 16:29:53;;;;;;;;;;;;;;;;;;5005728;28;42797;-79
2023/03/08 16:32:19;;;;;;;;;;;;;;;;;;5019111;28;44670;-80
2023/03/08 16:34:49;;;;;;;;;;;;;;;;;;5005239;28;42931;-85
2023/03/08 16:37:15;;;;;;;;;;;;;;;;;;5005557;28;43940;-83